createdAt,value
2019-05-19T00:02:03.950Z,24.15
2019-05-19T00:04:35.148Z,23.77
2019-05-19T00:07:06.365Z,25.48
2019-05-19T00:09:37.562Z,23.22
2019-05-19T00:12:08.889Z,23.87
2019-05-19T00:14:40.255Z,23.83
2019-05-19T00:17:11.474Z,24.32
2019-05-19T00:19:42.728Z,23.85
2019-05-19T00:22:14.029Z,23.95
2019-05-19T00:24:45.228Z,24.98
2019-05-19T00:27:16.423Z,23.57
2019-05-19T00:29:47.694Z,24.02
2019-05-19T00:32:18.938Z,24.72
2019-05-19T00:34:50.323Z,24.02
2019-05-19T00:37:21.711Z,23.85
2019-05-19T00:39:52.925Z,22.90
2019-05-19T00:42:24.260Z,23.52
2019-05-19T00:44:55.628Z,23.95
2019-05-19T00:47:26.851Z,25.17
2019-05-19T00:49:58.139Z,24.10
2019-05-19T00:52:29.370Z,22.93
2019-05-19T00:55:00.604Z,22.60
2019-05-19T00:57:32.173Z,23.52
2019-05-19T01:00:04.645Z,21.30
2019-05-19T01:02:36.511Z,22.40
2019-05-19T01:05:08.851Z,22.27
2019-05-19T01:07:40.070Z,21.97
2019-05-19T01:10:11.574Z,22.80
2019-05-19T01:12:42.999Z,22.02
2019-05-19T01:15:14.716Z,22.07
2019-05-19T01:17:45.991Z,20.05
2019-05-19T01:20:17.385Z,21.77
2019-05-19T01:22:48.677Z,22.93
2019-05-19T01:25:20.294Z,21.10
2019-05-19T01:27:51.550Z,22.32
2019-05-19T01:30:23.119Z,22.30
2019-05-19T01:32:54.422Z,20.97
2019-05-19T01:35:26.046Z,20.92
2019-05-19T01:37:57.410Z,21.05
2019-05-19T01:40:28.799Z,21.93
2019-05-19T01:43:00.129Z,20.68
2019-05-19T01:45:31.403Z,22.40
2019-05-19T01:48:02.686Z,22.35
2019-05-19T01:50:33.918Z,21.90
2019-05-19T01:53:05.111Z,21.37
2019-05-19T01:55:36.279Z,22.10
2019-05-19T01:58:07.494Z,22.48
2019-05-19T02:00:38.690Z,21.05
2019-05-19T02:03:09.897Z,21.00
2019-05-19T02:05:41.117Z,22.50
2019-05-19T02:08:12.308Z,20.60
2019-05-19T02:10:43.554Z,20.02
2019-05-19T02:13:15.074Z,20.55
2019-05-19T02:15:46.394Z,20.35
2019-05-19T02:18:17.759Z,20.55
2019-05-19T02:20:49.062Z,20.88
2019-05-19T02:23:20.214Z,20.25
2019-05-19T02:25:51.451Z,20.80
2019-05-19T02:28:22.770Z,21.52
2019-05-19T02:30:53.948Z,21.30
2019-05-19T02:33:25.114Z,20.95
2019-05-19T02:35:57.381Z,21.02
2019-05-19T02:38:28.581Z,21.48
2019-05-19T02:41:01.732Z,20.40
2019-05-19T02:43:33.457Z,21.55
2019-05-19T02:46:05.198Z,22.02
2019-05-19T02:48:36.673Z,21.93
2019-05-19T02:51:09.315Z,20.50
2019-05-19T02:53:40.528Z,20.95
2019-05-19T02:56:11.767Z,22.35
2019-05-19T02:58:44.572Z,22.22
2019-05-19T03:01:15.809Z,20.37
2019-05-19T03:03:47.329Z,20.20
2019-05-19T03:06:18.656Z,19.65
2019-05-19T03:08:49.954Z,23.27
2019-05-19T03:11:21.176Z,20.52
2019-05-19T03:13:52.422Z,20.88
2019-05-19T03:16:23.658Z,20.95
2019-05-19T03:18:54.819Z,20.75
2019-05-19T03:21:26.061Z,20.57
2019-05-19T03:23:57.295Z,18.87
2019-05-19T03:26:28.547Z,21.37
2019-05-19T03:28:59.834Z,20.68
2019-05-19T03:31:41.410Z,20.92
2019-05-19T03:34:12.930Z,21.02
2019-05-19T03:36:44.127Z,20.75
2019-05-19T03:39:15.373Z,21.57
2019-05-19T03:41:46.540Z,21.55
2019-05-19T03:44:17.809Z,21.05
2019-05-19T03:46:49.192Z,21.35
2019-05-19T03:49:20.496Z,20.57
2019-05-19T03:51:51.851Z,20.65
2019-05-19T03:54:23.046Z,20.92
2019-05-19T03:56:54.301Z,22.15
2019-05-19T03:59:25.499Z,21.45
2019-05-19T04:01:56.813Z,21.42
2019-05-19T04:04:28.040Z,21.85
2019-05-19T04:06:59.243Z,21.00
2019-05-19T04:09:30.430Z,20.62
2019-05-19T04:12:01.662Z,21.97
2019-05-19T04:14:32.839Z,21.20
2019-05-19T04:17:04.120Z,22.13
2019-05-19T04:19:35.711Z,21.15
2019-05-19T04:22:07.084Z,32.65
2019-05-19T04:24:41.317Z,22.77
2019-05-19T04:27:12.518Z,21.57
2019-05-19T04:29:43.720Z,21.33
2019-05-19T04:32:14.954Z,20.88
2019-05-19T04:34:46.095Z,20.45
2019-05-19T04:37:17.364Z,99.65
2019-05-19T04:39:48.685Z,33.45
2019-05-19T04:42:19.880Z,21.77
2019-05-19T04:44:51.282Z,20.88
2019-05-19T04:47:22.548Z,20.80
2019-05-19T04:49:53.914Z,20.37
2019-05-19T04:52:25.090Z,20.08
2019-05-19T04:54:56.331Z,21.50
2019-05-19T04:57:27.524Z,20.35
2019-05-19T04:59:58.797Z,20.97
2019-05-19T05:02:30.052Z,19.85
2019-05-19T05:05:01.505Z,21.07
2019-05-19T05:07:33.071Z,24.32
2019-05-19T05:10:04.301Z,20.82
2019-05-19T05:12:35.497Z,19.42
2019-05-19T05:15:06.704Z,19.82
2019-05-19T05:17:38.217Z,20.25
2019-05-19T05:20:10.125Z,20.08
2019-05-19T05:22:42.458Z,19.62
2019-05-19T05:25:13.930Z,19.90
2019-05-19T05:27:45.123Z,18.60
2019-05-19T05:30:16.744Z,32.10
2019-05-19T05:32:48.215Z,20.60
2019-05-19T05:35:19.502Z,19.77
2019-05-19T05:37:50.636Z,20.32
2019-05-19T05:40:22.009Z,19.87
2019-05-19T05:42:53.321Z,17.35
2019-05-19T05:45:24.658Z,18.92
2019-05-19T05:47:56.054Z,19.15
2019-05-19T05:50:27.292Z,19.92
2019-05-19T05:52:58.564Z,18.15
2019-05-19T05:55:29.767Z,46.90
2019-05-19T05:58:00.958Z,22.25
2019-05-19T06:00:32.399Z,19.60
2019-05-19T06:03:04.346Z,19.25
2019-05-19T06:05:35.524Z,18.75
2019-05-19T06:08:06.974Z,19.20
2019-05-19T06:10:38.314Z,17.90
2019-05-19T06:13:09.684Z,18.60
2019-05-19T06:15:40.928Z,18.12
2019-05-19T06:18:12.195Z,18.20
2019-05-19T06:20:44.480Z,18.92
2019-05-19T06:23:15.661Z,18.55
2019-05-19T06:25:46.881Z,19.00
2019-05-19T06:28:18.042Z,18.62
2019-05-19T06:30:49.275Z,18.48
2019-05-19T06:33:20.482Z,18.25
2019-05-19T06:35:51.717Z,19.12
2019-05-19T06:38:22.994Z,20.35
2019-05-19T06:40:54.300Z,19.17
2019-05-19T06:43:25.737Z,19.48
2019-05-19T06:45:57.159Z,19.67
2019-05-19T06:48:28.582Z,17.85
2019-05-19T06:50:59.897Z,17.20
2019-05-19T06:53:31.146Z,17.60
2019-05-19T06:56:02.368Z,17.37
2019-05-19T06:58:33.945Z,17.95
2019-05-19T07:01:05.169Z,16.77
2019-05-19T07:03:36.435Z,17.00
2019-05-19T07:06:07.690Z,17.62
2019-05-19T07:08:38.879Z,17.32
2019-05-19T07:11:11.295Z,16.00
2019-05-19T07:13:42.589Z,16.35
2019-05-19T07:16:13.846Z,16.62
2019-05-19T07:18:45.257Z,16.82
2019-05-19T07:21:16.485Z,17.23
2019-05-19T07:23:47.689Z,17.32
2019-05-19T07:26:18.975Z,17.27
2019-05-19T07:28:50.247Z,16.52
2019-05-19T07:31:21.365Z,16.55
2019-05-19T07:33:53.566Z,16.32
2019-05-19T07:36:24.827Z,16.60
2019-05-19T07:38:56.028Z,16.73
2019-05-19T07:41:27.516Z,16.67
2019-05-19T07:43:58.982Z,17.32
2019-05-19T07:46:30.278Z,16.85
2019-05-19T07:49:01.679Z,15.85
2019-05-19T07:51:32.987Z,15.05
2019-05-19T07:54:04.325Z,15.95
2019-05-19T07:56:35.676Z,15.25
2019-05-19T07:59:08.175Z,16.05
2019-05-19T08:01:39.413Z,16.95
2019-05-19T08:04:10.634Z,15.93
2019-05-19T08:06:41.910Z,16.35
2019-05-19T08:09:13.127Z,14.65
2019-05-19T08:11:44.792Z,15.20
2019-05-19T08:14:16.083Z,15.00
2019-05-19T08:16:47.410Z,15.78
2019-05-19T08:19:18.638Z,15.38
2019-05-19T08:21:49.930Z,15.45
2019-05-19T08:24:21.102Z,15.28
2019-05-19T08:26:53.268Z,14.55
2019-05-19T08:29:25.601Z,14.90
2019-05-19T08:31:56.807Z,14.10
2019-05-19T08:34:27.978Z,13.53
2019-05-19T08:36:59.436Z,13.68
2019-05-19T08:39:30.772Z,12.33
2019-05-19T08:42:02.139Z,12.40
2019-05-19T08:44:33.547Z,12.95
2019-05-19T08:47:05.091Z,13.40
2019-05-19T08:49:36.355Z,12.50
2019-05-19T08:52:07.576Z,12.55
2019-05-19T08:54:38.846Z,11.25
2019-05-19T08:57:10.030Z,12.15
2019-05-19T08:59:41.211Z,14.87
2019-05-19T09:02:12.458Z,12.93
2019-05-19T09:04:43.703Z,12.33
2019-05-19T09:07:14.934Z,12.73
2019-05-19T09:09:46.175Z,11.63
2019-05-19T09:12:17.529Z,11.48
2019-05-19T09:14:48.816Z,11.83
2019-05-19T09:17:20.286Z,12.00
2019-05-19T09:19:51.525Z,12.13
2019-05-19T09:22:22.738Z,12.78
2019-05-19T09:24:53.980Z,9.95
2019-05-19T09:27:25.348Z,10.65
2019-05-19T09:29:56.686Z,10.70
2019-05-19T09:32:27.944Z,10.05
2019-05-19T09:34:59.247Z,10.72
2019-05-19T09:37:30.467Z,9.73
2019-05-19T09:40:01.720Z,9.93
2019-05-19T09:42:34.516Z,10.08
2019-05-19T09:45:06.353Z,10.28
2019-05-19T09:47:37.952Z,10.68
2019-05-19T09:50:09.569Z,12.33
2019-05-19T09:52:40.819Z,9.28
2019-05-19T09:55:12.364Z,9.23
2019-05-19T09:57:43.588Z,9.15
2019-05-19T10:00:15.117Z,9.13
2019-05-19T10:02:46.593Z,8.85
2019-05-19T10:05:18.417Z,9.30
2019-05-19T10:07:49.955Z,8.85
2019-05-19T10:11:06.080Z,9.40
2019-05-19T10:14:02.448Z,8.33
2019-05-19T10:16:33.941Z,9.28
2019-05-19T10:19:05.327Z,8.18
2019-05-19T10:21:36.667Z,8.28
2019-05-19T10:24:08.044Z,8.40
2019-05-19T10:26:39.231Z,8.70
2019-05-19T10:29:11.591Z,8.68
2019-05-19T10:31:42.914Z,7.92
2019-05-19T10:34:14.130Z,7.47
2019-05-19T10:36:45.350Z,7.12
2019-05-19T10:39:16.739Z,7.50
2019-05-19T10:41:47.905Z,7.47
2019-05-19T10:44:19.277Z,7.50
2019-05-19T10:46:50.796Z,7.62
2019-05-19T10:49:22.261Z,8.10
2019-05-19T10:51:53.874Z,7.50
2019-05-19T10:54:25.087Z,7.22
2019-05-19T10:56:56.493Z,6.92
2019-05-19T10:59:27.770Z,6.55
2019-05-19T11:01:59.002Z,6.55
2019-05-19T11:04:30.134Z,6.65
2019-05-19T11:07:01.757Z,7.00
2019-05-19T11:09:33.044Z,7.17
2019-05-19T11:12:04.354Z,6.95
2019-05-19T11:14:35.628Z,6.75
2019-05-19T11:17:07.048Z,6.42
2019-05-19T11:19:38.387Z,6.22
2019-05-19T11:22:09.705Z,6.97
2019-05-19T11:24:40.963Z,7.22
2019-05-19T11:27:12.130Z,6.83
2019-05-19T11:29:43.346Z,7.10
2019-05-19T11:32:14.607Z,6.62
2019-05-19T11:34:45.854Z,6.80
2019-05-19T11:37:17.102Z,6.92
2019-05-19T11:39:48.284Z,7.08
2019-05-19T11:42:19.474Z,6.53
2019-05-19T11:44:50.693Z,6.90
2019-05-19T11:47:21.840Z,6.00
2019-05-19T11:49:53.245Z,7.80
2019-05-19T11:52:24.457Z,7.72
2019-05-19T11:54:55.982Z,7.55
2019-05-19T11:57:27.221Z,9.98
2019-05-19T11:59:58.479Z,7.08
2019-05-19T12:02:29.645Z,6.03
2019-05-19T12:05:00.874Z,6.90
2019-05-19T12:07:32.046Z,6.55
2019-05-19T12:10:03.310Z,7.00
2019-05-19T12:12:34.539Z,7.92
2019-05-19T12:15:05.867Z,7.97
2019-05-19T12:17:37.094Z,6.12
2019-05-19T12:20:08.571Z,5.85
2019-05-19T12:22:39.822Z,6.60
2019-05-19T12:25:11.000Z,6.33
2019-05-19T12:27:42.245Z,6.22
2019-05-19T12:30:18.845Z,7.12
2019-05-19T12:32:50.125Z,13.38
2019-05-19T12:35:21.399Z,8.23
2019-05-19T12:37:52.626Z,6.92
2019-05-19T12:40:23.926Z,6.60
2019-05-19T12:42:55.526Z,6.53
2019-05-19T12:45:26.879Z,6.67
2019-05-19T12:47:58.218Z,7.33
2019-05-19T12:50:29.570Z,6.90
2019-05-19T12:53:00.804Z,6.72
2019-05-19T12:55:31.980Z,6.75
2019-05-19T12:58:03.218Z,7.00
2019-05-19T13:00:34.429Z,7.08
2019-05-19T13:03:07.268Z,7.08
2019-05-19T13:05:38.488Z,7.03
2019-05-19T13:08:11.622Z,6.95
2019-05-19T13:10:43.141Z,6.75
2019-05-19T13:13:14.472Z,6.75
2019-05-19T13:15:45.746Z,6.83
2019-05-19T13:18:16.913Z,6.65
2019-05-19T13:20:48.161Z,6.42
2019-05-19T13:23:19.368Z,7.72
2019-05-19T13:25:50.553Z,7.03
2019-05-19T13:28:22.717Z,6.70
2019-05-19T13:30:53.913Z,7.00
2019-05-19T13:33:25.135Z,6.25
2019-05-19T13:35:56.546Z,5.97
2019-05-19T13:38:31.042Z,5.92
2019-05-19T13:41:02.253Z,6.30
2019-05-19T13:43:33.622Z,5.97
2019-05-19T13:46:04.852Z,6.47
2019-05-19T13:48:36.075Z,5.80
2019-05-19T13:51:07.340Z,5.20
2019-05-19T13:53:38.646Z,5.37
2019-05-19T13:56:09.827Z,5.50
2019-05-19T13:58:41.066Z,6.12
2019-05-19T14:01:27.317Z,4.92
2019-05-19T14:03:47.042Z,5.05
2019-05-19T14:06:18.303Z,5.45
2019-05-19T14:08:49.483Z,5.42
2019-05-19T14:11:20.678Z,5.67
2019-05-19T14:13:51.946Z,4.95
2019-05-19T14:16:23.256Z,5.28
2019-05-19T14:18:54.424Z,5.65
2019-05-19T14:21:25.653Z,5.10
2019-05-19T14:23:56.932Z,5.40
2019-05-19T14:26:28.183Z,5.12
2019-05-19T14:28:59.673Z,6.42
2019-05-19T14:31:31.107Z,5.62
2019-05-19T14:34:02.407Z,5.58
2019-05-19T14:36:33.622Z,5.22
2019-05-19T14:39:06.375Z,5.20
2019-05-19T14:41:41.916Z,5.33
2019-05-19T14:44:13.138Z,5.05
2019-05-19T14:46:44.390Z,5.10
2019-05-19T14:49:15.826Z,5.58
2019-05-19T14:51:47.118Z,5.17
2019-05-19T14:54:18.339Z,5.00
2019-05-19T14:56:49.598Z,5.75
2019-05-19T14:59:20.851Z,5.30
2019-05-19T15:01:52.390Z,5.65
2019-05-19T15:04:23.605Z,5.17
2019-05-19T15:06:54.974Z,4.85
2019-05-19T15:09:26.187Z,6.10
2019-05-19T15:11:57.491Z,5.20
2019-05-19T15:14:28.700Z,5.70
2019-05-19T15:16:59.888Z,5.30
2019-05-19T15:19:31.160Z,5.20
2019-05-19T15:22:02.448Z,5.65
2019-05-19T15:24:33.690Z,6.60
2019-05-19T15:27:04.858Z,5.87
2019-05-19T15:29:36.109Z,5.55
2019-05-19T15:32:07.334Z,5.12
2019-05-19T15:34:38.559Z,5.92
2019-05-19T15:37:09.677Z,5.92
2019-05-19T15:39:40.884Z,5.42
2019-05-19T15:42:12.101Z,5.67
2019-05-19T15:44:43.326Z,5.45
2019-05-19T15:47:14.610Z,5.70
2019-05-19T15:49:45.726Z,5.03
2019-05-19T15:52:17.001Z,5.00
2019-05-19T15:54:48.419Z,5.95
2019-05-19T15:57:19.646Z,5.10
2019-05-19T15:59:50.851Z,5.20
2019-05-19T16:02:22.136Z,5.80
2019-05-19T16:04:53.334Z,5.65
2019-05-19T16:07:24.696Z,5.83
2019-05-19T16:09:55.854Z,5.15
2019-05-19T16:12:27.069Z,5.22
2019-05-19T16:14:58.338Z,5.45
2019-05-19T16:17:29.596Z,5.17
2019-05-19T16:20:00.814Z,5.70
2019-05-19T16:22:31.948Z,5.37
2019-05-19T16:25:04.369Z,5.25
2019-05-19T16:27:35.651Z,5.55
2019-05-19T16:30:06.999Z,5.30
2019-05-19T16:32:38.324Z,5.25
2019-05-19T16:35:09.727Z,4.97
2019-05-19T16:37:40.904Z,6.37
2019-05-19T16:40:12.330Z,5.72
2019-05-19T16:42:43.641Z,5.25
2019-05-19T16:45:15.009Z,6.00
2019-05-19T16:47:46.198Z,5.55
2019-05-19T16:50:17.596Z,5.15
2019-05-19T16:52:48.922Z,6.25
2019-05-19T16:55:30.754Z,5.92
2019-05-19T16:58:02.055Z,5.87
2019-05-19T17:00:33.437Z,6.12
2019-05-19T17:03:04.980Z,5.65
2019-05-19T17:05:36.711Z,5.45
2019-05-19T17:08:08.116Z,5.87
2019-05-19T17:10:39.577Z,6.22
2019-05-19T17:13:10.858Z,6.33
2019-05-19T17:15:42.309Z,5.83
2019-05-19T17:18:13.620Z,5.70
2019-05-19T17:20:44.914Z,6.33
2019-05-19T17:23:16.132Z,6.78
2019-05-19T17:25:47.309Z,13.40
2019-05-19T17:28:18.596Z,9.28
2019-05-19T17:30:49.845Z,6.70
2019-05-19T17:33:21.019Z,6.30
2019-05-19T17:35:52.466Z,6.35
2019-05-19T17:38:24.119Z,6.62
2019-05-19T17:40:55.546Z,6.55
2019-05-19T17:43:26.793Z,6.45
2019-05-19T17:45:57.980Z,6.72
2019-05-19T17:48:29.288Z,14.30
2019-05-19T17:51:00.509Z,11.93
2019-05-19T17:53:31.761Z,7.53
2019-05-19T17:56:03.675Z,6.75
2019-05-19T17:58:34.936Z,6.83
2019-05-19T18:01:06.275Z,7.20
2019-05-19T18:03:48.788Z,6.50
2019-05-19T18:06:20.047Z,6.67
2019-05-19T18:08:51.450Z,6.28
2019-05-19T18:11:32.809Z,6.45
2019-05-19T18:14:06.097Z,7.40
2019-05-19T18:16:49.875Z,6.92
2019-05-19T18:19:22.300Z,7.80
2019-05-19T18:21:53.981Z,7.25
2019-05-19T18:24:40.339Z,7.58
2019-05-19T18:27:16.277Z,7.20
2019-05-19T18:29:52.117Z,7.78
2019-05-19T18:32:23.604Z,7.87
2019-05-19T18:34:54.943Z,7.42
2019-05-19T18:37:26.346Z,7.65
2019-05-19T18:40:00.492Z,9.03
2019-05-19T18:42:31.781Z,8.75
2019-05-19T18:45:04.203Z,7.90
2019-05-19T18:47:35.400Z,7.45
2019-05-19T18:50:12.546Z,8.48
2019-05-19T18:52:48.103Z,8.70
2019-05-19T18:55:19.654Z,8.30
2019-05-19T18:57:51.052Z,8.35
2019-05-19T19:00:38.820Z,8.75
2019-05-19T19:03:15.372Z,47.53
2019-05-19T19:05:46.911Z,17.45
2019-05-19T19:08:18.312Z,13.18
2019-05-19T19:10:49.456Z,9.68
2019-05-19T19:13:20.772Z,9.28
2019-05-19T19:15:52.001Z,8.45
2019-05-19T19:18:23.186Z,8.15
2019-05-19T19:20:54.542Z,8.65
2019-05-19T19:23:25.865Z,9.08
2019-05-19T19:25:57.098Z,9.30
2019-05-19T19:28:28.382Z,8.60
2019-05-19T19:30:59.774Z,9.53
2019-05-19T19:33:31.045Z,9.65
2019-05-19T19:36:02.216Z,9.00
2019-05-19T19:38:33.450Z,9.58
2019-05-19T19:41:04.738Z,10.08
2019-05-19T19:43:36.012Z,9.83
2019-05-19T19:46:07.264Z,9.55
2019-05-19T19:48:38.582Z,9.33
2019-05-19T19:51:09.741Z,9.13
2019-05-19T19:53:40.935Z,9.28
2019-05-19T19:56:12.940Z,9.35
2019-05-19T19:58:44.210Z,9.08
2019-05-19T20:01:15.511Z,9.90
2019-05-19T20:03:46.868Z,9.63
2019-05-19T20:06:18.110Z,9.83
2019-05-19T20:08:49.440Z,9.08
2019-05-19T20:11:20.816Z,9.80
2019-05-19T20:13:52.079Z,9.48
2019-05-19T20:16:23.298Z,10.00
2019-05-19T20:18:54.521Z,9.90
2019-05-19T20:21:25.762Z,10.68
2019-05-19T20:23:56.924Z,9.93
2019-05-19T20:26:28.317Z,10.03
2019-05-19T20:28:59.774Z,9.65
2019-05-19T20:31:31.579Z,10.35
2019-05-19T20:34:05.078Z,10.13
2019-05-19T20:36:36.382Z,10.48
2019-05-19T20:39:07.700Z,10.45
2019-05-19T20:41:39.056Z,9.83
2019-05-19T20:44:10.260Z,10.68
2019-05-19T20:46:41.483Z,10.60
2019-05-19T20:49:13.048Z,9.75
2019-05-19T20:51:44.373Z,10.28
2019-05-19T20:54:15.676Z,10.55
2019-05-19T20:56:47.144Z,10.80
2019-05-19T20:59:18.475Z,10.30
2019-05-19T21:01:49.634Z,9.73
2019-05-19T21:04:21.062Z,11.00
2019-05-19T21:06:52.375Z,11.10
2019-05-19T21:09:23.555Z,9.95
2019-05-19T21:11:54.859Z,10.15
2019-05-19T21:14:26.263Z,10.68
2019-05-19T21:16:57.604Z,10.88
2019-05-19T21:19:28.901Z,11.40
2019-05-19T21:22:00.231Z,10.88
2019-05-19T21:24:31.618Z,11.20
2019-05-19T21:27:03.035Z,12.00
2019-05-19T21:29:34.464Z,11.48
2019-05-19T21:32:05.706Z,10.78
2019-05-19T21:34:36.917Z,12.30
2019-05-19T21:37:08.280Z,11.43
2019-05-19T21:39:39.483Z,10.78
2019-05-19T21:42:11.061Z,11.93
2019-05-19T21:44:42.316Z,11.90
2019-05-19T21:47:13.628Z,12.05
2019-05-19T21:49:44.891Z,11.83
2019-05-19T21:52:16.190Z,11.43
2019-05-19T21:54:47.463Z,12.23
2019-05-19T21:57:18.947Z,12.03
2019-05-19T21:59:50.266Z,12.65
2019-05-19T22:02:21.741Z,12.25
2019-05-19T22:04:53.140Z,12.55
2019-05-19T22:07:34.697Z,12.90
2019-05-19T22:10:06.380Z,13.03
2019-05-19T22:12:37.640Z,13.35
2019-05-19T22:15:11.672Z,13.72
2019-05-19T22:17:42.880Z,13.10
2019-05-19T22:20:14.078Z,12.82
2019-05-19T22:22:45.322Z,13.83
2019-05-19T22:25:16.547Z,13.20
2019-05-19T22:27:47.792Z,13.08
2019-05-19T22:30:19.353Z,13.20
2019-05-19T22:32:50.942Z,13.75
2019-05-19T22:35:22.538Z,13.58
2019-05-19T22:37:53.807Z,13.40
2019-05-19T22:40:25.042Z,14.43
2019-05-19T22:42:56.285Z,14.43
2019-05-19T22:45:27.506Z,13.85
2019-05-19T22:47:58.738Z,14.40
2019-05-19T22:50:29.925Z,14.60
2019-05-19T22:53:01.185Z,14.43
2019-05-19T22:55:32.432Z,14.05
2019-05-19T22:58:03.801Z,14.63
2019-05-19T23:00:35.184Z,13.72
2019-05-19T23:03:06.495Z,14.00
2019-05-19T23:05:37.933Z,15.48
2019-05-19T23:08:09.251Z,13.80
2019-05-19T23:10:40.449Z,14.45
2019-05-19T23:13:11.808Z,15.53
2019-05-19T23:15:42.993Z,14.43
2019-05-19T23:18:15.373Z,14.90
2019-05-19T23:20:46.831Z,14.07
2019-05-19T23:23:17.988Z,14.45
2019-05-19T23:25:49.197Z,14.47
2019-05-19T23:28:20.513Z,14.07
2019-05-19T23:30:52.604Z,14.60
2019-05-19T23:33:23.982Z,13.80
2019-05-19T23:35:55.215Z,14.40
2019-05-19T23:38:26.397Z,13.88
2019-05-19T23:40:58.563Z,13.75
2019-05-19T23:43:29.773Z,14.30
2019-05-19T23:46:01.005Z,14.18
2019-05-19T23:48:32.205Z,14.35
2019-05-19T23:51:03.411Z,14.30
2019-05-19T23:53:34.559Z,14.10
2019-05-19T23:56:06.617Z,15.10
2019-05-19T23:58:38.050Z,14.98
